CheckWX is a tool to help pilots better visualize weather data.  It is not intended as a substitute for an official pre-flight weather briefing.

03:20:35 UTC

PAMC TAF
Mc Grath Airport
Mcgrath, Alaska, USA
PAMC 060537Z 0606/0706 24012G22KT 2SM -SN BLSN BKN015 OVC060 FM060700 22018G28KT 1 1/2SM -SN OVC015 FM061800 23015G23KT 2SM -SN OVC025

Apr-6@
06:00 UTC

Apr-6 @ 06:00 UTC

Apr-6@
07:00 UTC

Apr-6 @ 07:00 UTC

TAF PAMC 060537Z 0606/0706 24012G22KT 2SM -SN BLSN BKN015 OVC060

Expired

Wind
  • 240° at 12 KTS
  • {Gusting to 22 KTS
Conditions
Light Snow, Blowing Snow
Cloud Levels
  • Broken at 1,500' AGL
  • Overcast at 6,000' AGL

Apr-6@
07:00 UTC

Apr-6 @ 07:00 UTC

Apr-6@
18:00 UTC

Apr-6 @ 18:00 UTC

FM060700 22018G28KT 1 1/2SM -SN OVC015

Expired

Wind
  • 220° at 18 KTS
  • {Gusting to 28 KTS
Conditions
Light Snow
Cloud Levels
  • Overcast at 1,500' AGL

Apr-6@
18:00 UTC

Apr-6 @ 18:00 UTC

Apr-7@
06:00 UTC

Apr-7 @ 06:00 UTC

FM061800 23015G23KT 2SM -SN OVC025

From

From Standard forecast or significant change

Wind
  • 230° at 15 KTS
  • {Gusting to 23 KTS
Conditions
Light Snow
Cloud Levels
  • Overcast at 2,500' AGL